Terminal Aerodrome Forecast
Issued by NWS

Home | Current Version | Previous Version | Graphics & Text | Print | Product List | Glossary On
Versions: 1 2 3 4 5 6 7 8 9 10 11 12 13 14 15 16 17 18
377
FTUS43 KBIS 131140
TAFDIK
TAF
KDIK 131140Z 1312/1412 31018G28KT P6SM FEW250
     FM132300 31015G24KT P6SM SCT130
     FM140000 31014KT P6SM SCT130
     FM140600 28010KT P6SM -SN OVC060
     FM140800 30012KT 5SM -SN OVC025
     FM141000 31017G24KT P6SM -SN OVC012=

USA.gov is the U.S. government's official web portal to all federal, state and local government web resources and services.